Cayuga, ND (58013)

8:11 AM CST on February 22, 2017 (GMT -0600)
Calvin Jacobson | | Change Station

Elev 1214 ft 46.05 °N, 97.51 °W | Updated 1 second ago

Fog
Fog
34.2 °F
Feels Like 30 °F
N
5.1
Wind Variable Wind from North
Gusts 7.4 mph

Today
High -- | Low -- °F
--% Chance of Precip.
Yesterday
High -- | Low -- °F
Precip. -- in
Pressure 29.67 in
Visibility 4.0 miles
Clouds Scattered Clouds 400 ft
Scattered Clouds 5000 ft
Windchill 30 °F
Dew Point 30 °F
Humidity 86%
Rainfall 0.00 in
Snow Depth Not available.
7:20 AM 6:06 PM
Waning Crescent, 17% visible
METAR KGWR 221355Z AUTO 36009KT 4SM SCT004 SCT050 01/01 A2967 RMK AO1
Pressure 29.67 in
Visibility 4.0 miles
Clouds Scattered Clouds 400 ft
Scattered Clouds 5000 ft
Windchill 30 °F
Dew Point 30 °F
Humidity 86%
Rainfall 0.00 in
Snow Depth Not available.
7:20 AM 6:06 PM
Waning Crescent, 17% visible
METAR KGWR 221355Z AUTO 36009KT 4SM SCT004 SCT050 01/01 A2967 RMK AO1

Get Your Daily Forecast Email!

Thanks for signing up!

Be on the lookout for a verification email in your inbox.

You'll start receiving the daily forecast at 8 AM.

×

10-Day Weather Forecast

Almanac

Astronomy

Feb. 22, 2017 Rise Set
Actual Time
Civil Twilight
Nautical Twilight
Astronomical Twilight
Moon
Length of Visible Light
Length of Day
Tomorrow will be .
, % of the Moon is Illuminated

Today's Extremes

State Highs State Lows

Community

WunderPhotos

Upload Photos

1,962,540 photos uploaded!

WunderBlog® & News

Nearby

Air Quality

  Air Quality AQ Index Pollutant
Not available.

Snow Depth

Station Depth Elevation

Earthquake Activity

City Distance Mag. Time & Date
Minimum magnitude displayed is 2.5.

Coastal Water Temperatures

Place Temperature

Stations

Nearby Weather Stations

Station Location Temp. Windchill Dew Point Humidity Wind Precip. Elev Updated Type
                   

Watches & Warnings

There are currently no watches in effect.